Aeroporto :
LOGIN :

Iscrizione | Disclaimer

   EN    FR    IT 

 










Sommario :    VFR   VFR Marginale   IFR   IFR Intensivo   IFR Molto Intensivo
Visibilità : 
Base nubi : 
>= 8 km
>= 3000ft
5 / 8 km
1000 / 3000 ft
1500m / 5 km
500 / 1000 ft
800 / 1500m
200 / 500 ft
< 800m
< 200 ft
Simboli :   Temporali  Nebbia  Neve Forte  Precipitazioni Forti  Vento > 20 kt
SIGMETs :   Varie  Temporali  Ghiacco  Turbolenza  Onda orograficha  Ceneri Vulcaniche






- Altitudine del aeroporto : 327 ft
- Codice IATA : BHX


EGBB - Birmingham

ULTIMO METAR :
  • 231950Z 23003KT CAVOK 05/M01 Q1023

METARs OBSOLETI :
  • 231920Z 26003KT CAVOK 05/M02 Q1023
  • 231850Z VRB02KT CAVOK 06/M03 Q1022
  • 231820Z 32004KT 290V360 CAVOK 07/M03 Q1022
  • 231750Z 31005KT CAVOK 07/M04 Q1021
  • 231720Z 30006KT CAVOK 08/M04 Q1021

TAF TAF EGBB
Valido dal 23 a 18 ore il 24 a 18 ore UTC


231705Z 2318/2418 26008KT CAVOK
BECMG 2322/2402 8000 -RA FEW008 BKN020
TEMPO 2400/2409 4000 RA BKN008
BECMG 2403/2406 14012KT
PROB30
TEMPO 2403/2406 RADZ BKN004
BECMG 2406/2409 22020G35KT
PROB30
TEMPO 2406/2410 +RA
BECMG 2409/2412 9999 NSW
TEMPO 2409/2412 BKN012
BECMG 2414/2417 25020G30KT
ATIS : +44 121 780 0910



MetMap, La meteo Aeronautica in un colpo d'occhio ! - Copyright ORBIFLY Dicembre 2007 - Disclaimer

ORBIFLY MET'MAP TEAM :

Programmazione e sviluppo : Alexandra Zaïnal
Concezione : Baudouin d'Aumeries
Aiuto per la programmazione : Marc-Olivier Méhu
Supporto tecnico e logistico : Manuel Goepfert
Aiuto per la traduzione : Arnaldo La Scala

Contatto : metmap@orbifly.com




FONTI E CREDITI :

   NOAA